createdAt,value
2023-02-09T00:01:02.655Z,13.93
2023-02-09T00:03:30.245Z,13.67
2023-02-09T00:06:00.413Z,12.73
2023-02-09T00:08:28.014Z,12.80
2023-02-09T00:10:55.500Z,11.80
2023-02-09T00:13:23.355Z,13.93
2023-02-09T00:15:51.960Z,16.70
2023-02-09T00:18:19.640Z,14.10
2023-02-09T00:20:54.864Z,14.03
2023-02-09T00:23:22.840Z,13.47
2023-02-09T00:25:50.221Z,13.73
2023-02-09T00:28:17.607Z,12.77
2023-02-09T00:30:45.328Z,12.13
2023-02-09T00:33:13.214Z,11.73
2023-02-09T00:35:41.258Z,11.93
2023-02-09T00:38:09.160Z,12.87
2023-02-09T00:40:37.957Z,12.60
2023-02-09T00:43:05.786Z,11.40
2023-02-09T00:45:33.450Z,11.50
2023-02-09T00:48:01.162Z,11.67
2023-02-09T00:50:29.440Z,14.10
2023-02-09T00:52:56.748Z,9.90
2023-02-09T00:55:24.483Z,10.43
2023-02-09T00:57:52.475Z,10.43
2023-02-09T01:00:20.744Z,10.47
2023-02-09T01:02:48.160Z,10.83
2023-02-09T01:05:15.448Z,17.67
2023-02-09T01:07:42.747Z,11.63
2023-02-09T01:10:10.853Z,15.27
2023-02-09T01:12:40.308Z,14.53
2023-02-09T01:15:10.205Z,16.90
2023-02-09T01:17:37.689Z,17.00
2023-02-09T01:20:06.913Z,14.97
2023-02-09T01:22:35.513Z,13.13
2023-02-09T01:25:02.879Z,15.27
2023-02-09T01:27:30.178Z,12.40
2023-02-09T01:29:57.780Z,15.03
2023-02-09T01:32:25.753Z,14.23
2023-02-09T01:34:53.305Z,15.40
2023-02-09T01:37:21.003Z,17.27
2023-02-09T01:39:48.677Z,12.20
2023-02-09T01:42:16.575Z,13.87
2023-02-09T01:45:07.036Z,11.23
2023-02-09T01:47:41.076Z,8.97
2023-02-09T01:50:08.949Z,10.83
2023-02-09T01:52:36.437Z,10.67
2023-02-09T01:55:07.355Z,10.33
2023-02-09T01:57:37.919Z,9.97
2023-02-09T02:00:09.545Z,6.70
2023-02-09T02:02:38.005Z,14.67
2023-02-09T02:05:07.729Z,5.37
2023-02-09T02:07:41.636Z,11.53
2023-02-09T02:10:09.296Z,12.83
2023-02-09T02:12:37.679Z,13.20
2023-02-09T02:15:05.735Z,13.40
2023-02-09T02:17:51.863Z,11.00
2023-02-09T02:20:50.813Z,12.03
2023-02-09T02:23:26.946Z,11.80
2023-02-09T02:26:29.069Z,12.70
2023-02-09T02:29:22.967Z,10.50
2023-02-09T02:32:24.792Z,14.17
2023-02-09T02:34:58.982Z,8.20
2023-02-09T02:37:37.886Z,11.60
2023-02-09T02:40:14.314Z,15.27
2023-02-09T02:42:52.109Z,12.03
2023-02-09T02:45:41.068Z,12.63
2023-02-09T02:48:20.430Z,13.13
2023-02-09T02:50:53.995Z,14.33
2023-02-09T02:53:24.710Z,12.37
2023-02-09T02:55:54.939Z,14.57
2023-02-09T02:58:23.585Z,25.47
2023-02-09T03:00:53.621Z,11.97
2023-02-09T03:03:24.714Z,3.67
2023-02-09T03:05:53.184Z,10.33
2023-02-09T03:08:20.533Z,13.80
2023-02-09T03:10:48.217Z,10.20
2023-02-09T03:13:38.245Z,13.67
2023-02-09T03:16:24.406Z,11.40
2023-02-09T03:19:04.127Z,11.40
2023-02-09T03:21:41.960Z,10.30
2023-02-09T03:24:16.896Z,10.37
2023-02-09T03:26:49.405Z,8.23
2023-02-09T03:29:18.843Z,11.60
2023-02-09T03:31:48.228Z,8.23
2023-02-09T03:34:16.646Z,8.77
2023-02-09T03:36:49.108Z,8.50
2023-02-09T03:39:16.463Z,7.77
2023-02-09T03:41:43.765Z,8.80
2023-02-09T03:44:26.693Z,8.17
2023-02-09T03:46:55.071Z,9.03
2023-02-09T03:49:23.605Z,9.50
2023-02-09T03:51:51.098Z,9.20
2023-02-09T03:54:18.393Z,14.13
2023-02-09T03:56:45.783Z,27.47
2023-02-09T03:59:13.036Z,63.83
2023-02-09T04:01:40.366Z,48.80
2023-02-09T04:04:08.026Z,27.03
2023-02-09T04:06:36.224Z,12.23
2023-02-09T04:09:05.069Z,11.80
2023-02-09T04:11:32.893Z,15.40
2023-02-09T04:14:00.156Z,12.50
2023-02-09T04:16:27.666Z,15.13
2023-02-09T04:18:54.998Z,13.90
2023-02-09T04:21:22.305Z,16.47
2023-02-09T04:23:50.183Z,17.27
2023-02-09T04:26:17.799Z,15.03
2023-02-09T04:28:45.305Z,16.00
2023-02-09T04:31:12.845Z,15.53
2023-02-09T04:33:40.284Z,15.50
2023-02-09T04:36:09.137Z,15.90
2023-02-09T04:38:36.571Z,12.57
2023-02-09T04:41:05.260Z,12.40
2023-02-09T04:43:33.245Z,15.70
2023-02-09T04:46:00.757Z,9.43
2023-02-09T04:48:29.700Z,10.90
2023-02-09T04:50:57.758Z,11.43
2023-02-09T04:53:25.027Z,12.97
2023-02-09T04:55:52.935Z,14.30
2023-02-09T04:58:39.619Z,13.03
2023-02-09T05:01:07.536Z,14.57
2023-02-09T05:03:35.201Z,17.07
2023-02-09T05:06:04.614Z,15.80
2023-02-09T05:08:32.429Z,13.10
2023-02-09T05:10:59.684Z,8.73
2023-02-09T05:13:27.841Z,10.00
2023-02-09T05:15:55.348Z,11.03
2023-02-09T05:18:23.765Z,12.03
2023-02-09T05:20:52.076Z,10.73
2023-02-09T05:23:19.336Z,5.00
2023-02-09T05:25:47.647Z,9.17
2023-02-09T05:28:15.358Z,8.47
2023-02-09T05:30:43.372Z,7.33
2023-02-09T05:33:10.736Z,11.20
2023-02-09T05:35:37.971Z,12.27
2023-02-09T05:38:05.325Z,15.07
2023-02-09T05:40:32.608Z,10.70
2023-02-09T05:43:01.716Z,13.70
2023-02-09T05:45:28.947Z,16.00
2023-02-09T05:47:56.955Z,25.20
2023-02-09T05:50:24.207Z,20.70
2023-02-09T05:52:51.441Z,16.90
2023-02-09T05:55:18.822Z,13.90
2023-02-09T05:57:46.114Z,18.63
2023-02-09T06:00:14.650Z,26.70
2023-02-09T06:02:42.014Z,16.70
2023-02-09T06:05:10.092Z,19.20
2023-02-09T06:07:37.396Z,18.30
2023-02-09T06:10:05.001Z,16.03
2023-02-09T06:12:32.277Z,17.80
2023-02-09T06:14:59.582Z,16.00
2023-02-09T06:17:26.822Z,16.57
2023-02-09T06:19:54.096Z,15.77
2023-02-09T06:22:22.007Z,19.00
2023-02-09T06:24:49.281Z,13.97
2023-02-09T06:27:16.536Z,14.27
2023-02-09T06:29:43.885Z,14.50
2023-02-09T06:32:11.294Z,29.47
2023-02-09T06:34:38.625Z,15.37
2023-02-09T06:37:05.860Z,9.10
2023-02-09T06:39:33.767Z,11.87
2023-02-09T06:42:01.091Z,15.27
2023-02-09T06:44:28.479Z,13.40
2023-02-09T06:46:55.686Z,13.53
2023-02-09T06:49:24.576Z,16.10
2023-02-09T06:51:51.955Z,22.70
2023-02-09T06:54:20.056Z,30.77
2023-02-09T06:56:48.088Z,40.43
2023-02-09T06:59:15.348Z,39.37
2023-02-09T07:01:42.705Z,18.60
2023-02-09T07:04:10.019Z,18.60
2023-02-09T07:06:37.272Z,20.23
2023-02-09T07:09:04.641Z,32.07
2023-02-09T07:11:31.896Z,22.60
2023-02-09T07:13:59.895Z,26.20
2023-02-09T07:16:27.263Z,14.33
2023-02-09T07:18:54.528Z,12.93
2023-02-09T07:21:21.992Z,11.40
2023-02-09T07:23:49.397Z,15.20
2023-02-09T07:26:18.132Z,16.17
2023-02-09T07:28:45.567Z,12.00
2023-02-09T07:31:15.687Z,18.00
2023-02-09T07:33:42.960Z,15.03
2023-02-09T07:36:12.294Z,15.03
2023-02-09T07:38:40.262Z,19.90
2023-02-09T07:41:12.511Z,20.07
2023-02-09T07:43:39.742Z,20.90
2023-02-09T07:46:08.387Z,19.63
2023-02-09T07:48:36.817Z,17.20
2023-02-09T07:51:04.596Z,21.87
2023-02-09T07:53:32.824Z,23.13
2023-02-09T07:56:00.134Z,30.60
2023-02-09T07:58:27.492Z,28.50
2023-02-09T08:00:54.733Z,28.90
2023-02-09T08:03:23.666Z,24.27
2023-02-09T08:05:59.535Z,24.10
2023-02-09T08:08:26.837Z,22.13
2023-02-09T08:10:56.249Z,20.17
2023-02-09T08:13:25.050Z,21.97
2023-02-09T08:15:55.294Z,25.57
2023-02-09T08:18:24.686Z,23.27
2023-02-09T08:20:53.137Z,27.47
2023-02-09T08:23:23.392Z,28.40
2023-02-09T08:25:51.191Z,23.33
2023-02-09T08:28:19.166Z,24.33
2023-02-09T08:30:47.432Z,25.17
2023-02-09T08:33:14.862Z,23.93
2023-02-09T08:35:42.177Z,21.50
2023-02-09T08:38:10.138Z,20.00
2023-02-09T08:40:40.638Z,20.50
2023-02-09T08:43:08.136Z,24.13
2023-02-09T08:45:36.823Z,24.73
2023-02-09T08:48:05.994Z,25.60
2023-02-09T08:50:33.339Z,21.83
2023-02-09T08:53:02.201Z,19.77
2023-02-09T08:55:30.344Z,17.40
2023-02-09T08:57:57.658Z,16.93
2023-02-09T09:00:25.091Z,16.30
2023-02-09T09:02:52.321Z,16.70
2023-02-09T09:05:19.552Z,17.30
2023-02-09T09:07:47.460Z,17.07
2023-02-09T09:10:14.822Z,13.33
2023-02-09T09:12:42.791Z,18.33
2023-02-09T09:15:10.449Z,16.40
2023-02-09T09:17:37.700Z,15.90
2023-02-09T09:20:06.196Z,15.20
2023-02-09T09:22:33.619Z,13.70
2023-02-09T09:25:00.901Z,15.63
2023-02-09T09:27:28.235Z,15.47
2023-02-09T09:29:56.165Z,15.33
2023-02-09T09:32:24.110Z,14.90
2023-02-09T09:34:53.506Z,17.37
2023-02-09T09:37:21.028Z,15.00
2023-02-09T09:39:48.531Z,14.67
2023-02-09T09:42:23.772Z,14.93
2023-02-09T09:44:51.634Z,13.30
2023-02-09T09:47:25.931Z,15.70
2023-02-09T09:49:53.185Z,14.83
2023-02-09T09:52:28.119Z,14.77
2023-02-09T09:54:55.403Z,12.40
2023-02-09T09:57:27.042Z,20.90
2023-02-09T09:59:55.863Z,15.67
2023-02-09T10:02:28.748Z,14.57
2023-02-09T10:05:09.998Z,13.27
2023-02-09T10:07:39.951Z,12.07
2023-02-09T10:10:17.580Z,13.90
2023-02-09T10:12:48.234Z,12.70
2023-02-09T10:15:27.136Z,12.63
2023-02-09T10:17:55.501Z,13.90
2023-02-09T10:20:47.966Z,12.33
2023-02-09T10:23:23.901Z,11.30
2023-02-09T10:25:58.367Z,13.97
2023-02-09T10:28:27.568Z,12.13
2023-02-09T10:30:59.333Z,13.00
2023-02-09T10:33:29.209Z,13.13
2023-02-09T10:36:00.321Z,10.40
2023-02-09T10:38:33.379Z,12.40
2023-02-09T10:41:01.555Z,13.77
2023-02-09T10:43:31.896Z,14.10
2023-02-09T10:46:00.811Z,11.77
2023-02-09T10:48:38.615Z,12.40
2023-02-09T10:51:07.647Z,10.60
2023-02-09T10:53:37.836Z,11.10
2023-02-09T10:56:14.134Z,10.60
2023-02-09T10:58:41.587Z,10.20
2023-02-09T11:01:17.794Z,8.30
2023-02-09T11:04:00.361Z,11.20
2023-02-09T11:06:28.116Z,11.63
2023-02-09T11:09:01.545Z,11.10
2023-02-09T11:11:31.644Z,11.27
2023-02-09T11:13:59.821Z,12.83
2023-02-09T11:16:48.489Z,12.47
2023-02-09T11:19:30.017Z,12.87
2023-02-09T11:22:05.194Z,13.43
2023-02-09T11:24:46.515Z,13.83
2023-02-09T11:27:26.236Z,11.00
2023-02-09T11:30:03.584Z,12.60
2023-02-09T11:32:39.329Z,13.70
2023-02-09T11:35:12.349Z,10.70
2023-02-09T11:37:51.501Z,11.80
2023-02-09T11:40:37.537Z,12.23
2023-02-09T11:43:16.985Z,11.73
2023-02-09T11:45:47.472Z,14.00
2023-02-09T11:48:23.156Z,12.13
2023-02-09T11:51:00.576Z,11.83
2023-02-09T11:53:34.714Z,10.23
2023-02-09T11:56:04.909Z,12.97
2023-02-09T11:58:42.517Z,9.90
2023-02-09T12:01:18.848Z,9.63
2023-02-09T12:03:56.581Z,10.10
2023-02-09T12:06:25.311Z,9.00
2023-02-09T12:09:03.026Z,9.53
2023-02-09T12:11:42.749Z,10.17
2023-02-09T12:14:20.307Z,10.70
2023-02-09T12:16:54.731Z,13.03
2023-02-09T12:19:30.673Z,11.33
2023-02-09T12:22:18.727Z,9.13
2023-02-09T12:25:13.649Z,6.77
2023-02-09T12:27:42.860Z,10.57
2023-02-09T12:30:43.429Z,7.50
2023-02-09T12:33:18.959Z,8.40
2023-02-09T12:36:00.156Z,7.80
2023-02-09T12:38:49.336Z,9.63
2023-02-09T12:41:19.073Z,9.60
2023-02-09T12:43:47.237Z,9.43
2023-02-09T12:46:26.102Z,8.97
2023-02-09T12:49:20.028Z,9.10
2023-02-09T12:52:11.969Z,7.20
2023-02-09T12:54:42.360Z,8.17
2023-02-09T12:57:52.895Z,7.23
2023-02-09T13:00:40.585Z,8.33
2023-02-09T13:03:18.783Z,8.70
2023-02-09T13:05:47.450Z,8.07
2023-02-09T13:08:34.410Z,7.70
2023-02-09T13:11:06.695Z,7.50
2023-02-09T13:13:41.872Z,7.90
2023-02-09T13:16:44.905Z,9.40
2023-02-09T13:19:46.958Z,9.20
2023-02-09T13:22:29.751Z,8.80
2023-02-09T13:25:00.526Z,8.40
2023-02-09T13:27:29.321Z,9.10
2023-02-09T13:29:58.769Z,8.50
2023-02-09T13:32:43.221Z,8.40
2023-02-09T13:35:16.376Z,8.83
2023-02-09T13:37:47.286Z,8.57
2023-02-09T13:40:17.888Z,7.90
2023-02-09T13:42:54.880Z,7.97
2023-02-09T13:45:23.950Z,9.33
2023-02-09T13:47:51.503Z,9.43
2023-02-09T13:50:21.368Z,8.90
2023-02-09T13:52:50.086Z,9.23
2023-02-09T13:55:20.053Z,12.70
2023-02-09T13:57:58.434Z,10.40
2023-02-09T14:00:28.413Z,9.80
2023-02-09T14:02:58.710Z,9.10
2023-02-09T14:05:34.328Z,8.30
2023-02-09T14:08:02.142Z,9.40
2023-02-09T14:10:30.829Z,8.20
2023-02-09T14:13:03.160Z,9.37
2023-02-09T14:15:53.355Z,10.03
2023-02-09T14:18:33.184Z,8.53
2023-02-09T14:21:02.495Z,8.30
2023-02-09T14:23:32.292Z,8.50
2023-02-09T14:26:07.164Z,9.23
2023-02-09T14:28:36.761Z,10.53
2023-02-09T14:31:05.406Z,8.40
2023-02-09T14:33:38.120Z,8.90
2023-02-09T14:36:06.898Z,10.00
2023-02-09T14:38:41.741Z,9.60
2023-02-09T14:41:28.499Z,10.47
2023-02-09T14:44:01.348Z,9.00
2023-02-09T14:46:45.280Z,9.10
2023-02-09T14:49:12.669Z,9.20
2023-02-09T14:51:40.033Z,9.60
2023-02-09T14:54:24.070Z,9.63
2023-02-09T14:56:52.848Z,8.93
2023-02-09T14:59:21.756Z,10.50
2023-02-09T15:01:51.161Z,9.80
2023-02-09T15:04:18.699Z,10.97
2023-02-09T15:06:47.863Z,10.73
2023-02-09T15:09:21.873Z,12.30
2023-02-09T15:12:04.171Z,10.83
2023-02-09T15:14:36.485Z,10.07
2023-02-09T15:17:14.774Z,9.83
2023-02-09T15:19:42.439Z,10.23
2023-02-09T15:22:12.876Z,11.63
2023-02-09T15:24:41.061Z,9.60
2023-02-09T15:27:17.114Z,13.50
2023-02-09T15:29:45.679Z,13.03
2023-02-09T15:32:14.846Z,12.30
2023-02-09T15:34:42.690Z,11.60
2023-02-09T15:37:20.243Z,12.80
2023-02-09T15:39:48.580Z,13.20
2023-02-09T15:42:35.679Z,21.30
2023-02-09T15:45:35.604Z,15.40
2023-02-09T15:48:03.845Z,13.30
2023-02-09T15:50:33.398Z,13.83
2023-02-09T15:53:02.768Z,12.10
2023-02-09T15:55:30.743Z,13.20
2023-02-09T15:57:58.320Z,12.53
2023-02-09T16:00:28.390Z,11.63
2023-02-09T16:02:57.927Z,13.33
2023-02-09T16:05:27.870Z,11.33
2023-02-09T16:07:55.884Z,13.73
2023-02-09T16:10:24.682Z,15.20
2023-02-09T16:12:52.618Z,17.10
2023-02-09T16:15:23.401Z,15.87
2023-02-09T16:17:51.608Z,13.83
2023-02-09T16:20:20.010Z,14.40
2023-02-09T16:22:49.265Z,14.37
2023-02-09T16:25:18.792Z,14.70
2023-02-09T16:27:46.138Z,15.30
2023-02-09T16:30:18.603Z,15.53
2023-02-09T16:32:46.385Z,15.60
2023-02-09T16:35:17.194Z,14.63
2023-02-09T16:37:46.602Z,20.33
2023-02-09T16:40:32.511Z,19.43
2023-02-09T16:43:01.127Z,22.80
2023-02-09T16:45:30.510Z,22.03
2023-02-09T16:47:59.560Z,16.33
2023-02-09T16:50:32.697Z,17.33
2023-02-09T16:53:02.128Z,16.07
2023-02-09T16:55:31.643Z,15.70
2023-02-09T16:58:00.978Z,16.43
2023-02-09T17:00:30.340Z,15.40
2023-02-09T17:03:00.052Z,15.40
2023-02-09T17:05:31.277Z,16.60
2023-02-09T17:08:01.561Z,25.20
2023-02-09T17:10:31.312Z,33.53
2023-02-09T17:13:00.948Z,22.73
2023-02-09T17:15:31.727Z,18.20
2023-02-09T17:18:02.948Z,16.47
2023-02-09T17:20:35.974Z,23.37
2023-02-09T17:23:03.451Z,18.30
2023-02-09T17:25:30.859Z,17.03
2023-02-09T17:27:58.226Z,27.13
2023-02-09T17:30:25.551Z,22.33
2023-02-09T17:32:58.807Z,22.30
2023-02-09T17:35:53.103Z,24.87
2023-02-09T17:38:21.893Z,18.50
2023-02-09T17:40:49.340Z,19.60
2023-02-09T17:43:16.755Z,17.20
2023-02-09T17:45:48.279Z,20.57
2023-02-09T17:48:16.547Z,20.07
2023-02-09T17:50:45.628Z,20.03
2023-02-09T17:53:19.232Z,18.27
2023-02-09T17:55:47.460Z,22.90
2023-02-09T17:58:15.818Z,26.77
2023-02-09T18:00:44.358Z,22.80
2023-02-09T18:03:14.270Z,20.00
2023-02-09T18:05:41.935Z,21.07
2023-02-09T18:08:09.581Z,21.10
2023-02-09T18:10:38.070Z,22.07
2023-02-09T18:13:05.355Z,21.20
2023-02-09T18:15:35.518Z,18.83
2023-02-09T18:18:03.499Z,20.67
2023-02-09T18:20:32.823Z,17.53
2023-02-09T18:23:01.616Z,18.73
2023-02-09T18:25:31.044Z,17.03
2023-02-09T18:27:59.189Z,17.80
2023-02-09T18:30:29.130Z,18.00
2023-02-09T18:32:57.164Z,18.70
2023-02-09T18:35:26.792Z,18.60
2023-02-09T18:37:54.150Z,19.00
2023-02-09T18:40:21.613Z,21.67
2023-02-09T18:42:49.298Z,19.57
2023-02-09T18:45:19.235Z,24.17
2023-02-09T18:47:47.436Z,20.90
2023-02-09T18:50:17.935Z,21.00
2023-02-09T18:52:46.939Z,21.20
2023-02-09T18:55:14.833Z,21.00
2023-02-09T18:57:42.199Z,21.97
2023-02-09T19:00:12.073Z,21.40
2023-02-09T19:02:40.511Z,22.47
2023-02-09T19:05:08.603Z,22.53
2023-02-09T19:07:36.423Z,21.00
2023-02-09T19:10:04.462Z,21.03
2023-02-09T19:12:31.807Z,20.80
2023-02-09T19:14:59.330Z,21.07
2023-02-09T19:17:26.864Z,22.03
2023-02-09T19:19:57.605Z,21.17
2023-02-09T19:22:25.261Z,22.10
2023-02-09T19:24:55.476Z,20.90
2023-02-09T19:27:23.634Z,21.13
2023-02-09T19:29:54.115Z,24.30
2023-02-09T19:32:21.718Z,19.60
2023-02-09T19:34:49.604Z,19.43
2023-02-09T19:37:20.027Z,19.10
2023-02-09T19:39:52.285Z,21.07
2023-02-09T19:42:20.409Z,21.10
2023-02-09T19:44:48.353Z,19.87
2023-02-09T19:47:15.991Z,20.27
2023-02-09T19:49:44.688Z,18.97
2023-02-09T19:52:11.916Z,21.33
2023-02-09T19:54:39.797Z,20.70
2023-02-09T19:57:07.083Z,22.27
2023-02-09T19:59:37.357Z,18.90
2023-02-09T20:02:05.026Z,20.70
2023-02-09T20:04:34.041Z,21.70
2023-02-09T20:07:02.959Z,20.07
2023-02-09T20:09:30.158Z,19.13
2023-02-09T20:11:58.066Z,19.40
2023-02-09T20:14:25.354Z,20.60
2023-02-09T20:16:53.466Z,19.97
2023-02-09T20:19:20.945Z,22.50
2023-02-09T20:21:48.331Z,22.77
2023-02-09T20:24:15.670Z,25.20
2023-02-09T20:26:45.178Z,28.70
2023-02-09T20:29:15.637Z,28.00
2023-02-09T20:31:43.225Z,21.77
2023-02-09T20:34:12.601Z,21.37
2023-02-09T20:36:41.172Z,22.10
2023-02-09T20:39:12.584Z,22.27
2023-02-09T20:42:39.202Z,42.03
2023-02-09T20:45:50.366Z,19.20
2023-02-09T20:51:27.107Z,19.77
2023-02-09T20:53:54.376Z,20.93
2023-02-09T21:00:24.093Z,16.27
2023-02-09T21:02:57.533Z,16.10
2023-02-09T21:05:45.574Z,16.57
2023-02-09T21:11:29.853Z,14.40
2023-02-09T21:14:00.890Z,14.80
2023-02-09T21:23:56.641Z,16.30
2023-02-09T21:26:48.012Z,16.80
2023-02-09T21:29:28.375Z,14.90
2023-02-09T21:36:33.727Z,13.27
2023-02-09T21:40:15.997Z,14.70
2023-02-09T21:43:14.046Z,15.50
2023-02-09T21:45:41.628Z,15.37
2023-02-09T21:48:08.894Z,15.17
2023-02-09T21:50:36.172Z,15.13
2023-02-09T21:53:06.311Z,15.07
2023-02-09T21:55:55.358Z,13.10
2023-02-09T21:58:58.057Z,15.00
2023-02-09T22:02:10.524Z,13.90
2023-02-09T22:04:47.794Z,15.07
2023-02-09T22:09:04.093Z,15.30
2023-02-09T22:11:20.305Z,13.17
2023-02-09T22:13:54.991Z,12.57
2023-02-09T22:16:26.213Z,10.77
2023-02-09T22:20:02.341Z,11.87
2023-02-09T22:22:03.869Z,11.47
2023-02-09T22:24:50.371Z,13.13
2023-02-09T22:27:23.422Z,13.97
2023-02-09T22:29:50.750Z,10.90
2023-02-09T22:32:19.764Z,12.53
2023-02-09T22:34:47.010Z,13.70
2023-02-09T22:37:14.269Z,13.70
2023-02-09T22:39:41.514Z,11.87
2023-02-09T22:42:08.774Z,11.13
2023-02-09T22:44:36.047Z,11.77
2023-02-09T22:47:03.446Z,12.03
2023-02-09T22:49:31.545Z,11.20
2023-02-09T22:51:58.819Z,12.20
2023-02-09T22:54:26.079Z,12.20
2023-02-09T22:56:53.345Z,12.50
2023-02-09T22:59:20.812Z,12.00
2023-02-09T23:01:48.288Z,9.70
2023-02-09T23:04:15.605Z,11.67
2023-02-09T23:06:43.667Z,10.37
2023-02-09T23:09:12.309Z,11.13
2023-02-09T23:11:39.639Z,10.27
2023-02-09T23:14:11.167Z,12.70
2023-02-09T23:16:40.216Z,10.90
2023-02-09T23:19:12.110Z,11.30
2023-02-09T23:21:41.188Z,10.90
2023-02-09T23:24:10.277Z,11.80
2023-02-09T23:26:38.411Z,11.90
2023-02-09T23:29:07.421Z,11.20
2023-02-09T23:31:34.834Z,11.80
2023-02-09T23:34:02.322Z,11.97
2023-02-09T23:36:31.523Z,10.90
2023-02-09T23:39:00.448Z,9.80
2023-02-09T23:41:29.082Z,10.40
2023-02-09T23:43:57.288Z,11.37
2023-02-09T23:46:28.413Z,10.67
2023-02-09T23:48:56.522Z,10.00
2023-02-09T23:51:25.933Z,12.17
2023-02-09T23:53:54.832Z,10.67
2023-02-09T23:56:22.578Z,11.00
2023-02-09T23:58:52.276Z,14.17
